Date,TemperatureHighF,TemperatureAvgF,TemperatureLowF,DewpointHighF,DewpointAvgF,DewpointLowF,HumidityHigh,HumidityAvg,HumidityLow,PressureMaxIn,PressureMinIn,WindSpeedMaxMPH,WindSpeedAvgMPH,GustSpeedMaxMPH,PrecipitationSumIn
2013-2-1,68,50,34,41,34,28,87,60,23,30.37,30.24,2,0,4,0.00
2013-2-2,71,52,38,46,37,34,88,61,28,30.34,30.15,3,0,6,0.00
2013-2-3,70,52,36,53,40,33,94,69,30,30.20,30.06,4,1,7,0.00
2013-2-4,67,52,38,46,39,34,97,67,32,30.14,30.05,2,0,3,0.00
2013-2-5,76,57,38,54,46,37,95,69,41,30.11,30.00,3,0,6,0.00
2013-2-6,73,64,57,62,58,53,93,81,62,30.13,30.03,1,0,3,0.00
2013-2-7,80,68,60,66,63,58,97,83,58,30.08,29.84,5,1,10,0.08
2013-2-8,78,66,54,66,60,53,95,81,55,30.09,29.87,4,1,7,0.00
2013-2-9,73,60,52,57,53,50,97,79,53,30.22,30.08,3,1,11,0.00
2013-2-10,79,65,52,60,56,50,93,74,48,30.27,30.16,4,1,8,0.00
2013-2-11,83,70,59,65,61,57,95,76,50,30.20,30.06,4,1,6,0.00
2013-2-12,84,71,61,69,64,59,98,81,52,30.10,29.92,4,1,9,0.00
2013-2-13,80,70,62,70,67,61,97,92,70,29.97,29.83,6,2,9,0.25
2013-2-14,62,59,52,61,57,51,97,93,80,30.08,29.93,2,0,4,0.24
2013-2-15,69,56,48,53,49,45,97,79,46,30.10,29.96,2,0,5,0.00
2013-2-16,66,53,45,49,42,24,97,70,43,30.16,29.93,6,2,11,0.00
2013-2-17,53,42,30,29,21,12,81,48,20,30.36,30.16,3,1,7,0.00
2013-2-18,68,48,29,46,35,25,90,66,35,30.39,30.22,4,1,9,0.00
2013-2-19,78,62,45,57,52,43,95,73,45,30.24,30.05,5,1,9,0.00
2013-2-20,72,62,52,60,53,48,95,73,50,30.16,30.03,3,0,4,0.00
2013-2-21,83,64,49,64,56,47,96,77,50,30.12,29.99,2,0,5,0.00
2013-2-22,87,73,60,68,64,59,98,77,48,30.08,29.97,4,1,12,0.00
2013-2-23,86,73,64,69,66,63,98,80,53,30.00,29.87,5,1,13,0.00
2013-2-24,80,71,65,70,67,61,96,88,72,29.96,29.86,2,0,5,0.01
2013-2-25,87,72,64,71,65,62,97,81,49,29.93,29.76,5,1,9,0.00
2013-2-26,76,69,63,70,65,60,97,88,60,29.86,29.71,6,2,9,0.66
2013-2-27,72,62,53,61,52,47,92,72,43,29.98,29.86,4,1,7,0.00
2013-2-28,72,58,45,54,48,44,96,72,43,30.01,29.88,6,2,9,0.00